Melina — D5NG4 — position and weather

sailwx.info

Track history (hours):
 
Tides and Currents Weather Stations Pressure Air Temp Water Temp Dewpoint Dewpoint Depression Visibility Wind Speed Wind Dir Waves Ship Positions

Melina

Last reported at 2018-Jun-12 11:06 UTC. Time now 2018-Jun-25 02:05 UTC.
Position S 23°56' W 046°19'.
Warning: this ship's position is 12 days out of date.

Length 170 m; draft 5 m.

Type: Cargo ship. MMSI: 636017902.

Date/timePositionNaut miles runAvg speedWind from/ knotsBaromVisibWave heightAir tempDewpointWater temp
2018-Jun-12 11:06S 23°56' W 046°19'1 9.2
2018-Jun-12 10:57S 23°58' W 046°18'3 6.6
2018-Jun-12 10:30S 23°60' W 046°20'3 6.0
2018-Jun-12 10:00S 24°03' W 046°20'0 0.1
2018-Jun-12 09:30S 24°03' W 046°20'0 0.0
2018-Jun-12 09:00S 24°03' W 046°20'0 0.1
2018-Jun-12 08:24S 24°03' W 046°20'0 0.0
2018-Jun-12 08:00S 24°03' W 046°20'0 0.0
2018-Jun-12 07:30S 24°03' W 046°20'0 0.0
2018-Jun-12 07:00S 24°03' W 046°20'0 0.0
2018-Jun-12 06:30S 24°03' W 046°20'0 0.0
2018-Jun-12 06:00S 24°03' W 046°20'0 0.0
2018-Jun-12 05:30S 24°03' W 046°20'0 0.0
2018-Jun-12 05:00S 24°03' W 046°20'0 0.0
2018-Jun-12 04:30S 24°03' W 046°20'0 0.1
2018-Jun-12 04:00S 24°03' W 046°20'0 0.0
2018-Jun-12 03:30S 24°03' W 046°20'0 0.0
2018-Jun-12 03:00S 24°03' W 046°20'0 0.1
2018-Jun-12 02:30S 24°03' W 046°20'0 0.1
2018-Jun-12 02:00S 24°03' W 046°20'0 0.0
2018-Jun-12 01:30S 24°03' W 046°20'0 0.0
2018-Jun-12 01:00S 24°03' W 046°20'0 0.0
2018-Jun-12 00:18S 24°03' W 046°20'0 0.1
2018-Jun-12 00:00S 24°03' W 046°20'0 0.0
2018-Jun-11 23:09S 24°03' W 046°20'0 0.0
2018-Jun-11 22:54S 24°03' W 046°20'0 0.0
2018-Jun-11 22:30S 24°03' W 046°20'0 0.0
2018-Jun-11 21:54S 24°03' W 046°20'0 0.1
2018-Jun-11 21:18S 24°03' W 046°20'0 0.0
2018-Jun-11 20:54S 24°03' W 046°20'0 0.0
2018-Jun-11 20:30S 24°03' W 046°20'0 0.0
2018-Jun-11 20:00S 24°03' W 046°20'0 0.0
2018-Jun-11 19:30S 24°03' W 046°20'0 0.1
2018-Jun-11 19:00S 24°03' W 046°20'0 0.1
2018-Jun-11 18:24S 24°03' W 046°20'0 0.1
2018-Jun-11 18:00S 24°03' W 046°20'0 0.1
2018-Jun-11 17:30S 24°03' W 046°20'0 0.1
2018-Jun-11 17:00S 24°03' W 046°20'0 0.1
2018-Jun-11 16:24S 24°03' W 046°20'0 0.1
2018-Jun-11 16:00S 24°03' W 046°20'0 0.0
2018-Jun-11 15:30S 24°03' W 046°20'0 0.0
2018-Jun-11 14:57S 24°03' W 046°20'0 0.0
2018-Jun-11 14:18S 24°03' W 046°20'0 0.2
2018-Jun-11 14:00S 24°03' W 046°20'0 0.0
2018-Jun-11 13:30S 24°03' W 046°20'0 0.1
2018-Jun-11 13:00S 24°03' W 046°20'0 0.3
2018-Jun-11 12:18S 24°03' W 046°20'1 3.1
2018-Jun-11 11:59S 24°04' W 046°19'4 7.5
2018-Jun-11 11:30S 24°06' W 046°16'1 1.2
2018-Jun-11 10:56S 24°07' W 046°16'0 0.0
2018-Jun-11 10:26S 24°07' W 046°16'0 0.0
2018-Jun-11 09:59S 24°07' W 046°16'0 0.0
2018-Jun-11 09:17S 24°07' W 046°16'0 0.1
2018-Jun-11 08:59S 24°07' W 046°16'0 0.0
2018-Jun-11 08:17S 24°07' W 046°16'0 0.0
2018-Jun-11 07:59S 24°07' W 046°16'0 0.0
2018-Jun-11 07:29S 24°07' W 046°16'0 0.0
2018-Jun-11 06:59S 24°07' W 046°16'0 0.0
2018-Jun-11 06:29S 24°07' W 046°16'0 0.0
2018-Jun-11 05:59S 24°07' W 046°16'0 0.0
2018-Jun-11 05:29S 24°07' W 046°16'0 0.0
2018-Jun-11 04:35S 24°07' W 046°16'0 0.1
2018-Jun-11 04:29S 24°07' W 046°16'0 0.0
2018-Jun-11 03:59S 24°07' W 046°16'0 0.0
2018-Jun-11 03:29S 24°07' W 046°16'0 0.0
2018-Jun-11 02:59S 24°07' W 046°16'0 0.0
2018-Jun-11 02:29S 24°07' W 046°16'0 0.0
2018-Jun-11 01:59S 24°07' W 046°16'0 0.0
2018-Jun-11 01:11S 24°07' W 046°16'0 0.0
2018-Jun-11 00:59S 24°07' W 046°16'0 0.0
2018-Jun-11 00:29S 24°07' W 046°16'0 0.0
2018-Jun-10 23:59S 24°07' W 046°16'0 0.0
2018-Jun-10 23:29S 24°07' W 046°16'0 0.0
2018-Jun-10 22:56S 24°07' W 046°16'0 0.0
2018-Jun-10 22:29S 24°07' W 046°16'0 0.0
2018-Jun-10 21:59S 24°07' W 046°16'0 0.1
2018-Jun-10 21:29S 24°07' W 046°16'0 0.1
2018-Jun-10 20:50S 24°07' W 046°16'0 0.0
2018-Jun-10 20:11S 24°07' W 046°16'0 0.1
2018-Jun-10 19:59S 24°07' W 046°16'0 0.0
2018-Jun-10 19:29S 24°07' W 046°16'0 0.0
2018-Jun-10 18:59S 24°07' W 046°16'0 0.0
2018-Jun-10 18:29S 24°07' W 046°16'0 0.0
2018-Jun-10 17:53S 24°07' W 046°16'0 0.1
2018-Jun-10 17:29S 24°07' W 046°16'0 0.1
2018-Jun-10 16:59S 24°07' W 046°16'0 0.1
2018-Jun-10 16:29S 24°07' W 046°16'0 0.0
2018-Jun-10 15:56S 24°07' W 046°16'0 0.1
2018-Jun-10 15:29S 24°07' W 046°16'0 0.0
2018-Jun-10 14:59S 24°07' W 046°16'0 0.0
2018-Jun-10 13:59S 24°07' W 046°16'0 0.0
2018-Jun-10 13:29S 24°07' W 046°16'0 0.0
2018-Jun-10 12:59S 24°07' W 046°16'0 0.0
2018-Jun-10 12:23S 24°07' W 046°16'0 0.1
2018-Jun-10 11:59S 24°07' W 046°16'0 0.0
2018-Jun-10 11:23S 24°07' W 046°16'0 0.1
2018-Jun-10 10:59S 24°07' W 046°16'0 0.0
2018-Jun-10 10:29S 24°07' W 046°16'0 0.0
2018-Jun-10 09:59S 24°07' W 046°16'0 0.0
2018-Jun-10 09:29S 24°07' W 046°16'0 0.0
2018-Jun-10 08:59S 24°07' W 046°16'0 0.0
2018-Jun-10 08:11S 24°07' W 046°16'0 0.0
2018-Jun-10 07:56S 24°07' W 046°16'0 0.0
2018-Jun-10 07:29S 24°07' W 046°16'0 0.0
2018-Jun-10 06:59S 24°07' W 046°16'0 0.0
2018-Jun-10 06:29S 24°07' W 046°16'0 0.0
2018-Jun-10 05:53S 24°07' W 046°16'0 0.0
2018-Jun-10 05:29S 24°07' W 046°16'0 0.0
2018-Jun-10 04:59S 24°07' W 046°16'0 0.0
2018-Jun-10 04:29S 24°07' W 046°16'0 0.0
2018-Jun-10 03:59S 24°07' W 046°16'0 0.0
2018-Jun-10 03:23S 24°07' W 046°16'0 0.0
2018-Jun-10 02:59S 24°07' W 046°16'0 0.0
2018-Jun-10 02:29S 24°07' W 046°16'0 0.0
2018-Jun-10 01:59S 24°07' W 046°16'0 0.0
2018-Jun-10 01:29S 24°07' W 046°16'0 0.0
2018-Jun-10 00:59S 24°07' W 046°16'0 0.0
2018-Jun-10 00:29S 24°07' W 046°16'0 0.0
2018-Jun-09 23:50S 24°07' W 046°16'0 0.0
2018-Jun-09 23:23S 24°07' W 046°16'0 0.0
2018-Jun-09 22:59S 24°07' W 046°16'0 0.0
2018-Jun-09 22:29S 24°07' W 046°16'0 0.0
2018-Jun-09 21:59S 24°07' W 046°16'0 0.1
2018-Jun-09 21:17S 24°07' W 046°16'0 0.0
2018-Jun-09 20:41S 24°07' W 046°16'0 0.1
2018-Jun-09 20:29S 24°07' W 046°16'0 0.0
2018-Jun-09 19:59S 24°07' W 046°16'0 0.1
2018-Jun-09 19:29S 24°07' W 046°16'0 0.0
2018-Jun-09 18:59S 24°07' W 046°16'0 0.0
2018-Jun-09 18:20S 24°07' W 046°16'0 0.0
2018-Jun-09 17:59S 24°07' W 046°16'0 0.0
2018-Jun-09 17:29S 24°07' W 046°16'0 0.0
2018-Jun-09 16:59S 24°07' W 046°16'0 0.0
2018-Jun-09 16:29S 24°07' W 046°16'0 0.0
2018-Jun-09 15:59S 24°07' W 046°16'0 0.0
2018-Jun-09 15:26S 24°07' W 046°16'0 0.0
2018-Jun-09 14:23S 24°07' W 046°16'0 0.0
2018-Jun-09 13:59S 24°07' W 046°16'0 0.0
2018-Jun-09 13:29S 24°07' W 046°16'0 0.0
2018-Jun-09 12:59S 24°07' W 046°16'0 0.1
2018-Jun-09 12:29S 24°07' W 046°16'0 0.0
2018-Jun-09 11:59S 24°07' W 046°16'0 0.0
2018-Jun-09 11:29S 24°07' W 046°16'0 0.0
2018-Jun-09 10:53S 24°07' W 046°16'0 0.0
2018-Jun-09 10:29S 24°07' W 046°16'0 0.0
2018-Jun-09 09:59S 24°07' W 046°16'0 0.0
2018-Jun-09 09:29S 24°07' W 046°16'0 0.0
2018-Jun-09 08:59S 24°07' W 046°16'0 0.0
2018-Jun-09 08:23S 24°07' W 046°16'0 0.0
2018-Jun-09 07:59S 24°07' W 046°16'0 0.0
2018-Jun-09 07:29S 24°07' W 046°16'0 0.1
2018-Jun-09 06:59S 24°07' W 046°16'0 0.0
2018-Jun-09 06:29S 24°07' W 046°16'0 0.0
2018-Jun-09 05:59S 24°07' W 046°16'0 0.1
2018-Jun-09 05:29S 24°07' W 046°16'0 0.0
2018-Jun-09 04:59S 24°07' W 046°16'0 0.0
2018-Jun-09 04:29S 24°07' W 046°16'0 0.0
2018-Jun-09 03:59S 24°07' W 046°16'0 0.0
2018-Jun-09 03:29S 24°07' W 046°16'0 0.0
2018-Jun-09 02:59S 24°07' W 046°16'0 0.0
2018-Jun-09 02:29S 24°07' W 046°16'0 0.0
2018-Jun-09 01:59S 24°07' W 046°16'0 0.0
2018-Jun-09 01:23S 24°07' W 046°16'0 0.0
2018-Jun-09 00:59S 24°07' W 046°16'0 0.0
2018-Jun-09 00:11S 24°07' W 046°16'0 0.0
2018-Jun-08 23:59S 24°07' W 046°16'0 0.0
2018-Jun-08 23:29S 24°07' W 046°16'0 0.0
2018-Jun-08 22:53S 24°07' W 046°16'0 0.1
2018-Jun-08 22:29S 24°07' W 046°16'0 0.0
2018-Jun-08 21:59S 24°07' W 046°16'0 0.0
2018-Jun-08 21:29S 24°07' W 046°16'0 0.0
2018-Jun-08 20:53S 24°07' W 046°16'0 0.0
2018-Jun-08 20:29S 24°07' W 046°16'0 0.0
2018-Jun-08 19:53S 24°07' W 046°16'0 0.0
2018-Jun-08 19:29S 24°07' W 046°16'0 0.0
2018-Jun-08 18:59S 24°07' W 046°16'0 0.0
2018-Jun-08 18:29S 24°07' W 046°16'0 0.0
2018-Jun-08 17:59S 24°07' W 046°16'0 0.0
2018-Jun-08 17:29S 24°07' W 046°16'0 0.0
2018-Jun-08 16:59S 24°07' W 046°16'0 0.0
2018-Jun-08 16:29S 24°07' W 046°16'0 0.0
2018-Jun-08 15:59S 24°07' W 046°16'0 0.0
2018-Jun-08 15:29S 24°07' W 046°16'0 0.0
2018-Jun-08 14:59S 24°07' W 046°16'0 0.0
2018-Jun-08 14:29S 24°07' W 046°16'0 0.0
2018-Jun-08 13:59S 24°07' W 046°16'0 0.0
2018-Jun-08 13:29S 24°07' W 046°16'0 0.0
2018-Jun-08 12:59S 24°07' W 046°16'0 0.0
2018-Jun-08 12:29S 24°07' W 046°16'0 0.0
2018-Jun-08 11:59S 24°07' W 046°16'0 0.1
2018-Jun-08 11:29S 24°07' W 046°16'0 0.0
2018-Jun-08 10:59S 24°07' W 046°16'0 0.0
2018-Jun-08 10:29S 24°07' W 046°16'0 0.0
2018-Jun-08 09:35S 24°07' W 046°16'0 0.1
2018-Jun-08 09:23S 24°07' W 046°16'0 0.0
2018-Jun-08 08:59S 24°07' W 046°16'0 0.0
2018-Jun-08 08:23S 24°07' W 046°16'0 0.0
2018-Jun-08 07:59S 24°07' W 046°16'0 0.0
2018-Jun-08 07:29S 24°07' W 046°16'0 0.0
2018-Jun-08 06:59S 24°07' W 046°16'0 0.0
2018-Jun-08 06:29S 24°07' W 046°16'0 0.0
2018-Jun-08 05:59S 24°07' W 046°16'0 0.0
2018-Jun-08 05:29S 24°07' W 046°16'0 0.0
2018-Jun-08 04:59S 24°07' W 046°16'0 0.0
2018-Jun-08 04:29S 24°07' W 046°16'0 0.0
2018-Jun-08 03:59S 24°07' W 046°16'0 0.0
2018-Jun-08 03:29S 24°07' W 046°16'0 0.0
2018-Jun-08 02:59S 24°07' W 046°16'0 0.0
2018-Jun-08 02:29S 24°07' W 046°16'0 0.0
2018-Jun-08 01:59S 24°07' W 046°16'0 0.0
2018-Jun-08 01:26S 24°07' W 046°16'0 0.0
2018-Jun-08 00:59S 24°07' W 046°16'0 0.0
2018-Jun-08 00:29S 24°07' W 046°16'0 0.0
2018-Jun-07 23:59S 24°07' W 046°16'0 0.0
2018-Jun-07 23:29S 24°07' W 046°16'0 0.0
2018-Jun-07 22:59S 24°07' W 046°16'0 0.0
2018-Jun-07 22:29S 24°07' W 046°16'0 0.0
2018-Jun-07 21:59S 24°07' W 046°16'0 0.0
2018-Jun-07 21:29S 24°07' W 046°16'0 0.0
2018-Jun-07 20:59S 24°07' W 046°16'0 0.0
2018-Jun-07 20:29S 24°07' W 046°16'0 0.0
2018-Jun-07 19:59S 24°07' W 046°16'0 0.0
2018-Jun-07 19:29S 24°07' W 046°16'0 0.1
2018-Jun-07 18:47S 24°07' W 046°16'0 0.2
2018-Jun-07 18:29S 24°07' W 046°16'0 0.0
2018-Jun-07 17:59S 24°07' W 046°16'0 0.0
2018-Jun-07 17:23S 24°07' W 046°16'0 0.0
2018-Jun-07 16:47S 24°07' W 046°16'0 0.0
2018-Jun-07 16:29S 24°07' W 046°16'0 0.0
2018-Jun-07 15:59S 24°07' W 046°16'0 0.0
2018-Jun-07 15:17S 24°07' W 046°16'0 0.0
2018-Jun-07 14:53S 24°07' W 046°16'0 0.0
2018-Jun-07 14:29S 24°07' W 046°16'0 0.0
2018-Jun-07 13:41S 24°07' W 046°16'0 0.0
2018-Jun-07 13:29S 24°07' W 046°16'0 0.0
2018-Jun-07 12:59S 24°07' W 046°16'0 0.0
2018-Jun-07 12:29S 24°07' W 046°16'0 0.0
2018-Jun-07 11:59S 24°07' W 046°16'0 0.0
2018-Jun-07 11:29S 24°07' W 046°16'0 0.0
2018-Jun-07 10:59S 24°07' W 046°16'0 0.0
2018-Jun-07 10:23S 24°07' W 046°16'0 0.0
2018-Jun-07 09:59S 24°07' W 046°16'0 0.0
2018-Jun-07 09:29S 24°07' W 046°16'0 0.0
2018-Jun-07 08:59S 24°07' W 046°16'0 0.0
2018-Jun-07 08:29S 24°07' W 046°16'0 0.0
2018-Jun-07 07:59S 24°07' W 046°16'0 0.0
2018-Jun-07 07:29S 24°07' W 046°16'0 0.0
2018-Jun-07 06:53S 24°07' W 046°16'0 0.0
2018-Jun-07 06:23S 24°07' W 046°16'0 0.0
2018-Jun-07 05:53S 24°07' W 046°16'0 0.0
2018-Jun-07 05:29S 24°07' W 046°16'0 0.0
2018-Jun-07 04:59S 24°07' W 046°16'0 0.0
2018-Jun-07 04:29S 24°07' W 046°16'0 0.0
2018-Jun-07 03:59S 24°07' W 046°16'0 0.0
2018-Jun-07 03:29S 24°07' W 046°16'0 0.0
2018-Jun-07 02:59S 24°07' W 046°16'0 0.0
2018-Jun-07 02:26S 24°07' W 046°16'0 0.0
2018-Jun-07 01:59S 24°07' W 046°16'0 0.0
2018-Jun-07 01:29S 24°07' W 046°16'0 0.0
2018-Jun-07 00:56S 24°07' W 046°16'0 0.0
2018-Jun-07 00:23S 24°07' W 046°16'0 0.1
2018-Jun-06 23:59S 24°07' W 046°16'0 0.0
2018-Jun-06 23:29S 24°07' W 046°16'0 0.0
2018-Jun-06 22:53S 24°07' W 046°16'0 0.0
2018-Jun-06 22:29S 24°07' W 046°16'0 0.0
2018-Jun-06 21:59S 24°07' W 046°16'0 0.0
2018-Jun-06 21:29S 24°07' W 046°16'0 0.0
2018-Jun-06 20:59S 24°07' W 046°16'0 0.0
2018-Jun-06 20:29S 24°07' W 046°16'0 0.0
2018-Jun-06 19:59S 24°07' W 046°16'0 0.0
2018-Jun-06 19:29S 24°07' W 046°16'0 0.0
2018-Jun-06 18:59S 24°07' W 046°16'0 0.0
2018-Jun-06 18:29S 24°07' W 046°16'0 0.0
2018-Jun-06 17:59S 24°07' W 046°16'0 0.0
2018-Jun-06 17:29S 24°07' W 046°16'0 0.0
2018-Jun-06 16:59S 24°07' W 046°16'0 0.0
2018-Jun-06 16:29S 24°07' W 046°16'0 0.0
2018-Jun-06 15:59S 24°07' W 046°16'0 0.0
2018-Jun-06 15:23S 24°07' W 046°16'0 0.0
2018-Jun-06 14:59S 24°07' W 046°16'0 0.0
2018-Jun-06 14:29S 24°07' W 046°16'0 0.1
2018-Jun-06 13:59S 24°07' W 046°16'0 0.0
2018-Jun-06 13:29S 24°07' W 046°16'0 0.0
2018-Jun-06 12:59S 24°07' W 046°16'0 0.0
2018-Jun-06 12:29S 24°07' W 046°16'0 0.0
2018-Jun-06 11:59S 24°07' W 046°16'0 0.1
2018-Jun-06 11:29S 24°07' W 046°16'0 0.0
2018-Jun-06 10:59S 24°07' W 046°16'0 0.0
2018-Jun-06 10:29S 24°07' W 046°16'0 0.0
2018-Jun-06 09:47S 24°07' W 046°16'0 0.0
2018-Jun-06 09:29S 24°07' W 046°16'0 0.0
2018-Jun-06 08:53S 24°07' W 046°16'0 0.0
2018-Jun-06 08:29S 24°07' W 046°16'0 0.0
2018-Jun-06 07:59S 24°07' W 046°16'0 0.0
2018-Jun-06 07:23S 24°07' W 046°16'0 0.0
2018-Jun-06 06:59S 24°07' W 046°16'0 0.0
2018-Jun-06 06:23S 24°07' W 046°16'0 0.0
2018-Jun-06 05:53S 24°07' W 046°16'0 0.1
2018-Jun-06 05:29S 24°07' W 046°16'0 0.0
2018-Jun-06 04:59S 24°07' W 046°16'0 0.1
2018-Jun-06 04:29S 24°07' W 046°16'0 0.1
2018-Jun-06 03:53S 24°07' W 046°16'0 0.1
2018-Jun-06 03:29S 24°07' W 046°16'0 0.1
2018-Jun-06 02:59S 24°07' W 046°16'0 0.1
2018-Jun-06 02:23S 24°07' W 046°16'0 0.1
2018-Jun-06 01:59S 24°07' W 046°16'0 0.0
2018-Jun-06 01:29S 24°07' W 046°16'0 0.1
2018-Jun-06 00:59S 24°07' W 046°16'0 0.1
2018-Jun-06 00:29S 24°07' W 046°16'0 0.0
2018-Jun-05 23:59S 24°07' W 046°16'0 0.0
2018-Jun-05 23:29S 24°07' W 046°16'0 0.0
2018-Jun-05 22:53S 24°07' W 046°16'0 0.0
2018-Jun-05 22:23S 24°07' W 046°16'0 0.0
2018-Jun-05 21:59S 24°07' W 046°16'0 0.1
2018-Jun-05 21:29S 24°07' W 046°16'0 0.0
2018-Jun-05 20:53S 24°07' W 046°16'0 0.0
2018-Jun-05 20:29S 24°07' W 046°16'0 0.1
2018-Jun-05 19:59S 24°07' W 046°16'0 0.1
2018-Jun-05 19:29S 24°07' W 046°16'0 0.0
2018-Jun-05 18:53S 24°07' W 046°16'0 0.0
2018-Jun-05 18:29S 24°07' W 046°16'0 0.1
2018-Jun-05 17:47S 24°07' W 046°16'0 0.2
2018-Jun-05 17:29S 24°07' W 046°16'0 0.1
2018-Jun-05 16:56S 24°07' W 046°16'0 0.1
2018-Jun-05 16:29S 24°07' W 046°16'0 0.0
2018-Jun-05 15:59S 24°07' W 046°16'0 0.0
2018-Jun-05 15:29S 24°07' W 046°16'0 0.0
2018-Jun-05 14:59S 24°07' W 046°16'0 0.0
2018-Jun-05 14:29S 24°07' W 046°16'0 0.0
2018-Jun-05 13:59S 24°07' W 046°16'0 0.0
2018-Jun-05 13:29S 24°07' W 046°16'0 0.0
2018-Jun-05 12:53S 24°07' W 046°16'0 0.0
2018-Jun-05 12:29S 24°07' W 046°16'0 0.0
2018-Jun-05 11:59S 24°07' W 046°16'0 0.0
2018-Jun-05 11:29S 24°07' W 046°16'0 0.0
2018-Jun-05 10:59S 24°07' W 046°16'0 0.0
2018-Jun-05 10:29S 24°07' W 046°16'0 0.0
2018-Jun-05 09:56S 24°07' W 046°16'0 0.0
2018-Jun-05 09:29S 24°07' W 046°16'0 0.0
2018-Jun-05 08:59S 24°07' W 046°16'0 0.0
2018-Jun-05 08:29S 24°07' W 046°16'0 0.0
2018-Jun-05 07:59S 24°07' W 046°16'0 0.0
2018-Jun-05 07:29S 24°07' W 046°16'0 0.0
2018-Jun-05 06:59S 24°07' W 046°16'0 0.0
2018-Jun-05 06:29S 24°07' W 046°16'0 0.1
2018-Jun-05 05:59S 24°07' W 046°16'0 0.1
2018-Jun-05 05:29S 24°07' W 046°16'0 0.0
2018-Jun-05 04:59S 24°07' W 046°16'0 0.0
2018-Jun-05 04:29S 24°07' W 046°16'0 0.0
2018-Jun-05 03:59S 24°07' W 046°16'0 0.0
2018-Jun-05 03:29S 24°07' W 046°16'0 0.0
2018-Jun-05 02:59S 24°07' W 046°16'0 0.0
2018-Jun-05 02:29S 24°07' W 046°16'0 0.0
2018-Jun-05 01:59S 24°07' W 046°16'0 0.0
2018-Jun-05 01:29S 24°07' W 046°16'0 0.0
2018-Jun-05 00:59S 24°07' W 046°16'0 0.0
2018-Jun-05 00:29S 24°07' W 046°16'0 0.0
2018-Jun-04 23:56S 24°07' W 046°16'0 0.0
2018-Jun-04 23:20S 24°07' W 046°16'0 0.0
2018-Jun-04 22:47S 24°07' W 046°16'0 0.1
2018-Jun-04 22:26S 24°07' W 046°16'0 0.0
2018-Jun-04 21:53S 24°07' W 046°16'0 0.0
2018-Jun-04 21:23S 24°07' W 046°16'0 0.0
2018-Jun-04 20:59S 24°07' W 046°16'0 0.0
2018-Jun-04 20:29S 24°07' W 046°16'0 0.0
2018-Jun-04 19:59S 24°07' W 046°16'0 0.0
2018-Jun-04 19:29S 24°07' W 046°16'0 0.0
2018-Jun-04 18:59S 24°07' W 046°16'0 0.0
2018-Jun-04 18:29S 24°07' W 046°16'0 0.0
2018-Jun-04 17:59S 24°07' W 046°16'0 0.0
2018-Jun-04 17:29S 24°07' W 046°16'0 0.0
2018-Jun-04 16:59S 24°07' W 046°16'0 0.0
2018-Jun-04 16:29S 24°07' W 046°16'0 0.0
2018-Jun-04 15:59S 24°07' W 046°16'0 0.0
2018-Jun-04 15:29S 24°07' W 046°16'0 0.0
2018-Jun-04 14:59S 24°07' W 046°16'0 0.0
2018-Jun-04 14:29S 24°07' W 046°16'0 0.0
2018-Jun-04 13:59S 24°07' W 046°16'0 0.0
2018-Jun-04 13:29S 24°07' W 046°16'0 0.0
2018-Jun-04 12:53S 24°07' W 046°16'0 0.0
2018-Jun-04 12:20S 24°07' W 046°16'0 0.0
2018-Jun-04 11:59S 24°07' W 046°16'0 0.0
2018-Jun-04 11:29S 24°07' W 046°16'0 0.0
2018-Jun-04 10:59S 24°07' W 046°16'0 0.0
2018-Jun-04 10:29S 24°07' W 046°16'0 0.0
2018-Jun-04 09:59S 24°07' W 046°16'0 0.0
2018-Jun-04 09:02S 24°07' W 046°16'0 0.1
2018-Jun-04 08:59S 24°07' W 046°16'0 0.0
2018-Jun-04 08:29S 24°07' W 046°16'0 0.0
2018-Jun-04 07:59S 24°07' W 046°16'0 0.0
2018-Jun-04 07:29S 24°07' W 046°16'0 0.0
2018-Jun-04 06:59S 24°07' W 046°16'0 0.0
2018-Jun-04 06:29S 24°07' W 046°16'0 0.0
2018-Jun-04 05:50S 24°07' W 046°16'0 0.1
2018-Jun-04 05:29S 24°07' W 046°16'0 0.0
2018-Jun-04 04:59S 24°07' W 046°16'0 0.1
2018-Jun-04 04:29S 24°07' W 046°16'0 0.0
2018-Jun-04 03:59S 24°07' W 046°16'0 0.0
2018-Jun-04 03:26S 24°07' W 046°16'0 0.0
2018-Jun-04 02:53S 24°07' W 046°16'0 0.1
2018-Jun-04 02:29S 24°07' W 046°16'0 0.1
2018-Jun-04 01:59S 24°07' W 046°16'0 0.0
2018-Jun-04 01:23S 24°07' W 046°16'0 0.0
2018-Jun-04 00:59S 24°07' W 046°16'0 0.0
2018-Jun-04 00:29S 24°07' W 046°16'0 0.0
2018-Jun-03 23:59S 24°07' W 046°16'0 0.0
2018-Jun-03 23:29S 24°07' W 046°16'0 0.0
2018-Jun-03 22:59S 24°07' W 046°16'0 0.0
2018-Jun-03 22:23S 24°07' W 046°16'0 0.0
2018-Jun-03 21:59S 24°07' W 046°16'0 0.0
2018-Jun-03 21:29S 24°07' W 046°16'0 0.0
2018-Jun-03 20:59S 24°07' W 046°16'0 0.0
2018-Jun-03 20:29S 24°07' W 046°16'0 0.0
2018-Jun-03 19:44S 24°07' W 046°16'0 0.1
2018-Jun-03 19:29S 24°07' W 046°16'0 0.0
2018-Jun-03 18:59S 24°07' W 046°16'0 0.0
2018-Jun-03 18:26S 24°07' W 046°16'0 0.0
2018-Jun-03 17:59S 24°07' W 046°16'0 0.0
2018-Jun-03 17:23S 24°07' W 046°16'0 0.0
2018-Jun-03 16:59S 24°07' W 046°16'0 0.0
2018-Jun-03 16:14S 24°07' W 046°16'0 0.0
2018-Jun-03 15:59S 24°07' W 046°16'0 0.0
2018-Jun-03 15:29S 24°07' W 046°16'0 0.0
2018-Jun-03 14:53S 24°07' W 046°16'0 0.0
2018-Jun-03 14:20S 24°07' W 046°16'0 0.0
2018-Jun-03 13:59S 24°07' W 046°16'0 0.0
2018-Jun-03 13:29S 24°07' W 046°16'0 0.0
2018-Jun-03 12:59S 24°07' W 046°16'0 0.0
2018-Jun-03 12:29S 24°07' W 046°16'0 0.0
2018-Jun-03 11:59S 24°07' W 046°16'0 0.0
2018-Jun-03 11:11S 24°07' W 046°16'0 0.1
2018-Jun-03 10:50S 24°07' W 046°16'0 0.0
2018-Jun-03 10:23S 24°07' W 046°16'0 0.0
2018-Jun-03 09:59S 24°07' W 046°16'0 0.0
2018-Jun-03 09:29S 24°07' W 046°16'0 0.0
2018-Jun-03 08:59S 24°07' W 046°16'0 0.0
2018-Jun-03 08:29S 24°07' W 046°16'0 0.1
2018-Jun-03 07:59S 24°07' W 046°16'0 0.0
2018-Jun-03 07:17S 24°07' W 046°16'0 0.1
2018-Jun-03 06:53S 24°07' W 046°16'0 0.2
2018-Jun-03 06:23S 24°07' W 046°16'0 0.0
2018-Jun-03 05:59S 24°07' W 046°16'0 0.0
2018-Jun-03 05:29S 24°07' W 046°16'0 0.0
2018-Jun-03 04:59S 24°07' W 046°16'0 0.0
2018-Jun-03 04:23S 24°07' W 046°16'0 0.0
2018-Jun-03 03:59S 24°07' W 046°16'0 0.0
2018-Jun-03 03:17S 24°07' W 046°16'0 0.0
2018-Jun-03 02:59S 24°07' W 046°16'0 0.0
2018-Jun-03 02:29S 24°07' W 046°16'0 0.0
2018-Jun-03 01:59S 24°07' W 046°16'0 0.0
2018-Jun-03 01:29S 24°07' W 046°16'0 0.0
2018-Jun-03 00:59S 24°07' W 046°16'0 0.0
2018-Jun-03 00:29S 24°07' W 046°16'0 0.0
2018-Jun-02 23:59S 24°07' W 046°16'0 0.0
2018-Jun-02 23:29S 24°07' W 046°16'0 0.0
2018-Jun-02 22:53S 24°07' W 046°16'0 0.0
2018-Jun-02 22:29S 24°07' W 046°16'0 0.0
2018-Jun-02 21:59S 24°07' W 046°16'0 0.0
2018-Jun-02 21:29S 24°07' W 046°16'0 0.0
2018-Jun-02 20:59S 24°07' W 046°16'0 0.0
2018-Jun-02 20:29S 24°07' W 046°16'0 0.0
2018-Jun-02 19:59S 24°07' W 046°16'0 0.0
2018-Jun-02 19:29S 24°07' W 046°16'0 0.1
2018-Jun-02 18:53S 24°07' W 046°16'0 0.0
2018-Jun-02 18:29S 24°07' W 046°16'0 0.0
2018-Jun-02 17:59S 24°07' W 046°16'0 0.0
2018-Jun-02 17:26S 24°07' W 046°16'0 0.1
2018-Jun-02 16:59S 24°07' W 046°16'0 0.0
2018-Jun-02 16:29S 24°07' W 046°16'0 0.0
2018-Jun-02 15:59S 24°07' W 046°16'0 0.1
2018-Jun-02 15:29S 24°07' W 046°16'0 0.1
2018-Jun-02 14:53S 24°07' W 046°16'0 0.1
2018-Jun-02 14:29S 24°07' W 046°16'0 0.0
2018-Jun-02 13:59S 24°07' W 046°16'0 0.0
2018-Jun-02 13:23S 24°07' W 046°16'0 0.2
2018-Jun-02 12:59S 24°07' W 046°16'0 0.0
2018-Jun-02 12:29S 24°07' W 046°16'0 0.1
2018-Jun-02 11:59S 24°07' W 046°16'0 0.1
2018-Jun-02 11:29S 24°07' W 046°16'  
Track history (hours):
 
Tides and Currents Weather Stations Pressure Air Temp Water Temp Dewpoint Dewpoint Depression Visibility Wind Speed Wind Dir Waves Ship Positions

Melina

Last reported at 2018-Jun-12 11:06 UTC. Time now 2018-Jun-25 02:05 UTC.
Position S 23°56' W 046°19'.
Warning: this ship's position is 12 days out of date.

Length 170 m; draft 5 m.

Type: Cargo ship. MMSI: 636017902.

Date/timePositionNaut miles runAvg speedWind from/ knotsBaromVisibWave heightAir tempDewpointWater temp
2018-Jun-12 11:06S 23°56' W 046°19'1 9.2
2018-Jun-12 10:57S 23°58' W 046°18'3 6.6
2018-Jun-12 10:30S 23°60' W 046°20'3 6.0
2018-Jun-12 10:00S 24°03' W 046°20'0 0.1
2018-Jun-12 09:30S 24°03' W 046°20'0 0.0
2018-Jun-12 09:00S 24°03' W 046°20'0 0.1
2018-Jun-12 08:24S 24°03' W 046°20'0 0.0
2018-Jun-12 08:00S 24°03' W 046°20'0 0.0
2018-Jun-12 07:30S 24°03' W 046°20'0 0.0
2018-Jun-12 07:00S 24°03' W 046°20'0 0.0
2018-Jun-12 06:30S 24°03' W 046°20'0 0.0
2018-Jun-12 06:00S 24°03' W 046°20'0 0.0
2018-Jun-12 05:30S 24°03' W 046°20'0 0.0
2018-Jun-12 05:00S 24°03' W 046°20'0 0.0
2018-Jun-12 04:30S 24°03' W 046°20'0 0.1
2018-Jun-12 04:00S 24°03' W 046°20'0 0.0
2018-Jun-12 03:30S 24°03' W 046°20'0 0.0
2018-Jun-12 03:00S 24°03' W 046°20'0 0.1
2018-Jun-12 02:30S 24°03' W 046°20'0 0.1
2018-Jun-12 02:00S 24°03' W 046°20'0 0.0
2018-Jun-12 01:30S 24°03' W 046°20'0 0.0
2018-Jun-12 01:00S 24°03' W 046°20'0 0.0
2018-Jun-12 00:18S 24°03' W 046°20'0 0.1
2018-Jun-12 00:00S 24°03' W 046°20'0 0.0
2018-Jun-11 23:09S 24°03' W 046°20'0 0.0
2018-Jun-11 22:54S 24°03' W 046°20'0 0.0
2018-Jun-11 22:30S 24°03' W 046°20'0 0.0
2018-Jun-11 21:54S 24°03' W 046°20'0 0.1
2018-Jun-11 21:18S 24°03' W 046°20'0 0.0
2018-Jun-11 20:54S 24°03' W 046°20'0 0.0
2018-Jun-11 20:30S 24°03' W 046°20'0 0.0
2018-Jun-11 20:00S 24°03' W 046°20'0 0.0
2018-Jun-11 19:30S 24°03' W 046°20'0 0.1
2018-Jun-11 19:00S 24°03' W 046°20'0 0.1
2018-Jun-11 18:24S 24°03' W 046°20'0 0.1
2018-Jun-11 18:00S 24°03' W 046°20'0 0.1
2018-Jun-11 17:30S 24°03' W 046°20'0 0.1
2018-Jun-11 17:00S 24°03' W 046°20'0 0.1
2018-Jun-11 16:24S 24°03' W 046°20'0 0.1
2018-Jun-11 16:00S 24°03' W 046°20'0 0.0
2018-Jun-11 15:30S 24°03' W 046°20'0 0.0
2018-Jun-11 14:57S 24°03' W 046°20'0 0.0
2018-Jun-11 14:18S 24°03' W 046°20'0 0.2
2018-Jun-11 14:00S 24°03' W 046°20'0 0.0
2018-Jun-11 13:30S 24°03' W 046°20'0 0.1
2018-Jun-11 13:00S 24°03' W 046°20'0 0.3
2018-Jun-11 12:18S 24°03' W 046°20'1 3.1
2018-Jun-11 11:59S 24°04' W 046°19'4 7.5
2018-Jun-11 11:30S 24°06' W 046°16'1 1.2
2018-Jun-11 10:56S 24°07' W 046°16'0 0.0
2018-Jun-11 10:26S 24°07' W 046°16'0 0.0
2018-Jun-11 09:59S 24°07' W 046°16'0 0.0
2018-Jun-11 09:17S 24°07' W 046°16'0 0.1
2018-Jun-11 08:59S 24°07' W 046°16'0 0.0
2018-Jun-11 08:17S 24°07' W 046°16'0 0.0
2018-Jun-11 07:59S 24°07' W 046°16'0 0.0
2018-Jun-11 07:29S 24°07' W 046°16'0 0.0
2018-Jun-11 06:59S 24°07' W 046°16'0 0.0
2018-Jun-11 06:29S 24°07' W 046°16'0 0.0
2018-Jun-11 05:59S 24°07' W 046°16'0 0.0
2018-Jun-11 05:29S 24°07' W 046°16'0 0.0
2018-Jun-11 04:35S 24°07' W 046°16'0 0.1
2018-Jun-11 04:29S 24°07' W 046°16'0 0.0
2018-Jun-11 03:59S 24°07' W 046°16'0 0.0
2018-Jun-11 03:29S 24°07' W 046°16'0 0.0
2018-Jun-11 02:59S 24°07' W 046°16'0 0.0
2018-Jun-11 02:29S 24°07' W 046°16'0 0.0
2018-Jun-11 01:59S 24°07' W 046°16'0 0.0
2018-Jun-11 01:11S 24°07' W 046°16'0 0.0
2018-Jun-11 00:59S 24°07' W 046°16'0 0.0
2018-Jun-11 00:29S 24°07' W 046°16'0 0.0
2018-Jun-10 23:59S 24°07' W 046°16'0 0.0
2018-Jun-10 23:29S 24°07' W 046°16'0 0.0
2018-Jun-10 22:56S 24°07' W 046°16'0 0.0
2018-Jun-10 22:29S 24°07' W 046°16'0 0.0
2018-Jun-10 21:59S 24°07' W 046°16'0 0.1
2018-Jun-10 21:29S 24°07' W 046°16'0 0.1
2018-Jun-10 20:50S 24°07' W 046°16'0 0.0
2018-Jun-10 20:11S 24°07' W 046°16'0 0.1
2018-Jun-10 19:59S 24°07' W 046°16'0 0.0
2018-Jun-10 19:29S 24°07' W 046°16'0 0.0
2018-Jun-10 18:59S 24°07' W 046°16'0 0.0
2018-Jun-10 18:29S 24°07' W 046°16'0 0.0
2018-Jun-10 17:53S 24°07' W 046°16'0 0.1
2018-Jun-10 17:29S 24°07' W 046°16'0 0.1
2018-Jun-10 16:59S 24°07' W 046°16'0 0.1
2018-Jun-10 16:29S 24°07' W 046°16'0 0.0
2018-Jun-10 15:56S 24°07' W 046°16'0 0.1
2018-Jun-10 15:29S 24°07' W 046°16'0 0.0
2018-Jun-10 14:59S 24°07' W 046°16'0 0.0
2018-Jun-10 13:59S 24°07' W 046°16'0 0.0
2018-Jun-10 13:29S 24°07' W 046°16'0 0.0
2018-Jun-10 12:59S 24°07' W 046°16'0 0.0
2018-Jun-10 12:23S 24°07' W 046°16'0 0.1
2018-Jun-10 11:59S 24°07' W 046°16'0 0.0
2018-Jun-10 11:23S 24°07' W 046°16'0 0.1
2018-Jun-10 10:59S 24°07' W 046°16'0 0.0
2018-Jun-10 10:29S 24°07' W 046°16'0 0.0
2018-Jun-10 09:59S 24°07' W 046°16'0 0.0
2018-Jun-10 09:29S 24°07' W 046°16'0 0.0
2018-Jun-10 08:59S 24°07' W 046°16'0 0.0
2018-Jun-10 08:11S 24°07' W 046°16'0 0.0
2018-Jun-10 07:56S 24°07' W 046°16'0 0.0
2018-Jun-10 07:29S 24°07' W 046°16'0 0.0
2018-Jun-10 06:59S 24°07' W 046°16'0 0.0
2018-Jun-10 06:29S 24°07' W 046°16'0 0.0
2018-Jun-10 05:53S 24°07' W 046°16'0 0.0
2018-Jun-10 05:29S 24°07' W 046°16'0 0.0
2018-Jun-10 04:59S 24°07' W 046°16'0 0.0
2018-Jun-10 04:29S 24°07' W 046°16'0 0.0
2018-Jun-10 03:59S 24°07' W 046°16'0 0.0
2018-Jun-10 03:23S 24°07' W 046°16'0 0.0
2018-Jun-10 02:59S 24°07' W 046°16'0 0.0
2018-Jun-10 02:29S 24°07' W 046°16'0 0.0
2018-Jun-10 01:59S 24°07' W 046°16'0 0.0
2018-Jun-10 01:29S 24°07' W 046°16'0 0.0
2018-Jun-10 00:59S 24°07' W 046°16'0 0.0
2018-Jun-10 00:29S 24°07' W 046°16'0 0.0
2018-Jun-09 23:50S 24°07' W 046°16'0 0.0
2018-Jun-09 23:23S 24°07' W 046°16'0 0.0
2018-Jun-09 22:59S 24°07' W 046°16'0 0.0
2018-Jun-09 22:29S 24°07' W 046°16'0 0.0
2018-Jun-09 21:59S 24°07' W 046°16'0 0.1
2018-Jun-09 21:17S 24°07' W 046°16'0 0.0
2018-Jun-09 20:41S 24°07' W 046°16'0 0.1
2018-Jun-09 20:29S 24°07' W 046°16'0 0.0
2018-Jun-09 19:59S 24°07' W 046°16'0 0.1
2018-Jun-09 19:29S 24°07' W 046°16'0 0.0
2018-Jun-09 18:59S 24°07' W 046°16'0 0.0
2018-Jun-09 18:20S 24°07' W 046°16'0 0.0
2018-Jun-09 17:59S 24°07' W 046°16'0 0.0
2018-Jun-09 17:29S 24°07' W 046°16'0 0.0
2018-Jun-09 16:59S 24°07' W 046°16'0 0.0
2018-Jun-09 16:29S 24°07' W 046°16'0 0.0
2018-Jun-09 15:59S 24°07' W 046°16'0 0.0
2018-Jun-09 15:26S 24°07' W 046°16'0 0.0
2018-Jun-09 14:23S 24°07' W 046°16'0 0.0
2018-Jun-09 13:59S 24°07' W 046°16'0 0.0
2018-Jun-09 13:29S 24°07' W 046°16'0 0.0
2018-Jun-09 12:59S 24°07' W 046°16'0 0.1
2018-Jun-09 12:29S 24°07' W 046°16'0 0.0
2018-Jun-09 11:59S 24°07' W 046°16'0 0.0
2018-Jun-09 11:29S 24°07' W 046°16'0 0.0
2018-Jun-09 10:53S 24°07' W 046°16'0 0.0
2018-Jun-09 10:29S 24°07' W 046°16'0 0.0
2018-Jun-09 09:59S 24°07' W 046°16'0 0.0
2018-Jun-09 09:29S 24°07' W 046°16'0 0.0
2018-Jun-09 08:59S 24°07' W 046°16'0 0.0
2018-Jun-09 08:23S 24°07' W 046°16'0 0.0
2018-Jun-09 07:59S 24°07' W 046°16'0 0.0
2018-Jun-09 07:29S 24°07' W 046°16'0 0.1
2018-Jun-09 06:59S 24°07' W 046°16'0 0.0
2018-Jun-09 06:29S 24°07' W 046°16'0 0.0
2018-Jun-09 05:59S 24°07' W 046°16'0 0.1
2018-Jun-09 05:29S 24°07' W 046°16'0 0.0
2018-Jun-09 04:59S 24°07' W 046°16'0 0.0
2018-Jun-09 04:29S 24°07' W 046°16'0 0.0
2018-Jun-09 03:59S 24°07' W 046°16'0 0.0
2018-Jun-09 03:29S 24°07' W 046°16'0 0.0
2018-Jun-09 02:59S 24°07' W 046°16'0 0.0
2018-Jun-09 02:29S 24°07' W 046°16'0 0.0
2018-Jun-09 01:59S 24°07' W 046°16'0 0.0
2018-Jun-09 01:23S 24°07' W 046°16'0 0.0
2018-Jun-09 00:59S 24°07' W 046°16'0 0.0
2018-Jun-09 00:11S 24°07' W 046°16'0 0.0
2018-Jun-08 23:59S 24°07' W 046°16'0 0.0
2018-Jun-08 23:29S 24°07' W 046°16'0 0.0
2018-Jun-08 22:53S 24°07' W 046°16'0 0.1
2018-Jun-08 22:29S 24°07' W 046°16'0 0.0
2018-Jun-08 21:59S 24°07' W 046°16'0 0.0
2018-Jun-08 21:29S 24°07' W 046°16'0 0.0
2018-Jun-08 20:53S 24°07' W 046°16'0 0.0
2018-Jun-08 20:29S 24°07' W 046°16'0 0.0
2018-Jun-08 19:53S 24°07' W 046°16'0 0.0
2018-Jun-08 19:29S 24°07' W 046°16'0 0.0
2018-Jun-08 18:59S 24°07' W 046°16'0 0.0
2018-Jun-08 18:29S 24°07' W 046°16'0 0.0
2018-Jun-08 17:59S 24°07' W 046°16'0 0.0
2018-Jun-08 17:29S 24°07' W 046°16'0 0.0
2018-Jun-08 16:59S 24°07' W 046°16'0 0.0
2018-Jun-08 16:29S 24°07' W 046°16'0 0.0
2018-Jun-08 15:59S 24°07' W 046°16'0 0.0
2018-Jun-08 15:29S 24°07' W 046°16'0 0.0
2018-Jun-08 14:59S 24°07' W 046°16'0 0.0
2018-Jun-08 14:29S 24°07' W 046°16'0 0.0
2018-Jun-08 13:59S 24°07' W 046°16'0 0.0
2018-Jun-08 13:29S 24°07' W 046°16'0 0.0
2018-Jun-08 12:59S 24°07' W 046°16'0 0.0
2018-Jun-08 12:29S 24°07' W 046°16'0 0.0
2018-Jun-08 11:59S 24°07' W 046°16'0 0.1
2018-Jun-08 11:29S 24°07' W 046°16'0 0.0
2018-Jun-08 10:59S 24°07' W 046°16'0 0.0
2018-Jun-08 10:29S 24°07' W 046°16'0 0.0
2018-Jun-08 09:35S 24°07' W 046°16'0 0.1
2018-Jun-08 09:23S 24°07' W 046°16'0 0.0
2018-Jun-08 08:59S 24°07' W 046°16'0 0.0
2018-Jun-08 08:23S 24°07' W 046°16'0 0.0
2018-Jun-08 07:59S 24°07' W 046°16'0 0.0
2018-Jun-08 07:29S 24°07' W 046°16'0 0.0
2018-Jun-08 06:59S 24°07' W 046°16'0 0.0
2018-Jun-08 06:29S 24°07' W 046°16'0 0.0
2018-Jun-08 05:59S 24°07' W 046°16'0 0.0
2018-Jun-08 05:29S 24°07' W 046°16'0 0.0
2018-Jun-08 04:59S 24°07' W 046°16'0 0.0
2018-Jun-08 04:29S 24°07' W 046°16'0 0.0
2018-Jun-08 03:59S 24°07' W 046°16'0 0.0
2018-Jun-08 03:29S 24°07' W 046°16'0 0.0
2018-Jun-08 02:59S 24°07' W 046°16'0 0.0
2018-Jun-08 02:29S 24°07' W 046°16'0 0.0
2018-Jun-08 01:59S 24°07' W 046°16'0 0.0
2018-Jun-08 01:26S 24°07' W 046°16'0 0.0
2018-Jun-08 00:59S 24°07' W 046°16'0 0.0
2018-Jun-08 00:29S 24°07' W 046°16'0 0.0
2018-Jun-07 23:59S 24°07' W 046°16'0 0.0
2018-Jun-07 23:29S 24°07' W 046°16'0 0.0
2018-Jun-07 22:59S 24°07' W 046°16'0 0.0
2018-Jun-07 22:29S 24°07' W 046°16'0 0.0
2018-Jun-07 21:59S 24°07' W 046°16'0 0.0
2018-Jun-07 21:29S 24°07' W 046°16'0 0.0
2018-Jun-07 20:59S 24°07' W 046°16'0 0.0
2018-Jun-07 20:29S 24°07' W 046°16'0 0.0
2018-Jun-07 19:59S 24°07' W 046°16'0 0.0
2018-Jun-07 19:29S 24°07' W 046°16'0 0.1
2018-Jun-07 18:47S 24°07' W 046°16'0 0.2
2018-Jun-07 18:29S 24°07' W 046°16'0 0.0
2018-Jun-07 17:59S 24°07' W 046°16'0 0.0
2018-Jun-07 17:23S 24°07' W 046°16'0 0.0
2018-Jun-07 16:47S 24°07' W 046°16'0 0.0
2018-Jun-07 16:29S 24°07' W 046°16'0 0.0
2018-Jun-07 15:59S 24°07' W 046°16'0 0.0
2018-Jun-07 15:17S 24°07' W 046°16'0 0.0
2018-Jun-07 14:53S 24°07' W 046°16'0 0.0
2018-Jun-07 14:29S 24°07' W 046°16'0 0.0
2018-Jun-07 13:41S 24°07' W 046°16'0 0.0
2018-Jun-07 13:29S 24°07' W 046°16'0 0.0
2018-Jun-07 12:59S 24°07' W 046°16'0 0.0
2018-Jun-07 12:29S 24°07' W 046°16'0 0.0
2018-Jun-07 11:59S 24°07' W 046°16'0 0.0
2018-Jun-07 11:29S 24°07' W 046°16'0 0.0
2018-Jun-07 10:59S 24°07' W 046°16'0 0.0
2018-Jun-07 10:23S 24°07' W 046°16'0 0.0
2018-Jun-07 09:59S 24°07' W 046°16'0 0.0
2018-Jun-07 09:29S 24°07' W 046°16'0 0.0
2018-Jun-07 08:59S 24°07' W 046°16'0 0.0
2018-Jun-07 08:29S 24°07' W 046°16'0 0.0
2018-Jun-07 07:59S 24°07' W 046°16'0 0.0
2018-Jun-07 07:29S 24°07' W 046°16'0 0.0
2018-Jun-07 06:53S 24°07' W 046°16'0 0.0
2018-Jun-07 06:23S 24°07' W 046°16'0 0.0
2018-Jun-07 05:53S 24°07' W 046°16'0 0.0
2018-Jun-07 05:29S 24°07' W 046°16'0 0.0
2018-Jun-07 04:59S 24°07' W 046°16'0 0.0
2018-Jun-07 04:29S 24°07' W 046°16'0 0.0
2018-Jun-07 03:59S 24°07' W 046°16'0 0.0
2018-Jun-07 03:29S 24°07' W 046°16'0 0.0
2018-Jun-07 02:59S 24°07' W 046°16'0 0.0
2018-Jun-07 02:26S 24°07' W 046°16'0 0.0
2018-Jun-07 01:59S 24°07' W 046°16'0 0.0
2018-Jun-07 01:29S 24°07' W 046°16'0 0.0
2018-Jun-07 00:56S 24°07' W 046°16'0 0.0
2018-Jun-07 00:23S 24°07' W 046°16'0 0.1
2018-Jun-06 23:59S 24°07' W 046°16'0 0.0
2018-Jun-06 23:29S 24°07' W 046°16'0 0.0
2018-Jun-06 22:53S 24°07' W 046°16'0 0.0
2018-Jun-06 22:29S 24°07' W 046°16'0 0.0
2018-Jun-06 21:59S 24°07' W 046°16'0 0.0
2018-Jun-06 21:29S 24°07' W 046°16'0 0.0
2018-Jun-06 20:59S 24°07' W 046°16'0 0.0
2018-Jun-06 20:29S 24°07' W 046°16'0 0.0
2018-Jun-06 19:59S 24°07' W 046°16'0 0.0
2018-Jun-06 19:29S 24°07' W 046°16'0 0.0
2018-Jun-06 18:59S 24°07' W 046°16'0 0.0
2018-Jun-06 18:29S 24°07' W 046°16'0 0.0
2018-Jun-06 17:59S 24°07' W 046°16'0 0.0
2018-Jun-06 17:29S 24°07' W 046°16'0 0.0
2018-Jun-06 16:59S 24°07' W 046°16'0 0.0
2018-Jun-06 16:29S 24°07' W 046°16'0 0.0
2018-Jun-06 15:59S 24°07' W 046°16'0 0.0
2018-Jun-06 15:23S 24°07' W 046°16'0 0.0
2018-Jun-06 14:59S 24°07' W 046°16'0 0.0
2018-Jun-06 14:29S 24°07' W 046°16'0 0.1
2018-Jun-06 13:59S 24°07' W 046°16'0 0.0
2018-Jun-06 13:29S 24°07' W 046°16'0 0.0
2018-Jun-06 12:59S 24°07' W 046°16'0 0.0
2018-Jun-06 12:29S 24°07' W 046°16'0 0.0
2018-Jun-06 11:59S 24°07' W 046°16'0 0.1
2018-Jun-06 11:29S 24°07' W 046°16'0 0.0
2018-Jun-06 10:59S 24°07' W 046°16'0 0.0
2018-Jun-06 10:29S 24°07' W 046°16'0 0.0
2018-Jun-06 09:47S 24°07' W 046°16'0 0.0
2018-Jun-06 09:29S 24°07' W 046°16'0 0.0
2018-Jun-06 08:53S 24°07' W 046°16'0 0.0
2018-Jun-06 08:29S 24°07' W 046°16'0 0.0
2018-Jun-06 07:59S 24°07' W 046°16'0 0.0
2018-Jun-06 07:23S 24°07' W 046°16'0 0.0
2018-Jun-06 06:59S 24°07' W 046°16'0 0.0
2018-Jun-06 06:23S 24°07' W 046°16'0 0.0
2018-Jun-06 05:53S 24°07' W 046°16'0 0.1
2018-Jun-06 05:29S 24°07' W 046°16'0 0.0
2018-Jun-06 04:59S 24°07' W 046°16'0 0.1
2018-Jun-06 04:29S 24°07' W 046°16'0 0.1
2018-Jun-06 03:53S 24°07' W 046°16'0 0.1
2018-Jun-06 03:29S 24°07' W 046°16'0 0.1
2018-Jun-06 02:59S 24°07' W 046°16'0 0.1
2018-Jun-06 02:23S 24°07' W 046°16'0 0.1
2018-Jun-06 01:59S 24°07' W 046°16'0 0.0
2018-Jun-06 01:29S 24°07' W 046°16'0 0.1
2018-Jun-06 00:59S 24°07' W 046°16'0 0.1
2018-Jun-06 00:29S 24°07' W 046°16'0 0.0
2018-Jun-05 23:59S 24°07' W 046°16'0 0.0
2018-Jun-05 23:29S 24°07' W 046°16'0 0.0
2018-Jun-05 22:53S 24°07' W 046°16'0 0.0
2018-Jun-05 22:23S 24°07' W 046°16'0 0.0
2018-Jun-05 21:59S 24°07' W 046°16'0 0.1
2018-Jun-05 21:29S 24°07' W 046°16'0 0.0
2018-Jun-05 20:53S 24°07' W 046°16'0 0.0
2018-Jun-05 20:29S 24°07' W 046°16'0 0.1
2018-Jun-05 19:59S 24°07' W 046°16'0 0.1
2018-Jun-05 19:29S 24°07' W 046°16'0 0.0
2018-Jun-05 18:53S 24°07' W 046°16'0 0.0
2018-Jun-05 18:29S 24°07' W 046°16'0 0.1
2018-Jun-05 17:47S 24°07' W 046°16'0 0.2
2018-Jun-05 17:29S 24°07' W 046°16'0 0.1
2018-Jun-05 16:56S 24°07' W 046°16'0 0.1
2018-Jun-05 16:29S 24°07' W 046°16'0 0.0
2018-Jun-05 15:59S 24°07' W 046°16'0 0.0
2018-Jun-05 15:29S 24°07' W 046°16'0 0.0
2018-Jun-05 14:59S 24°07' W 046°16'0 0.0
2018-Jun-05 14:29S 24°07' W 046°16'0 0.0
2018-Jun-05 13:59S 24°07' W 046°16'0 0.0
2018-Jun-05 13:29S 24°07' W 046°16'0 0.0
2018-Jun-05 12:53S 24°07' W 046°16'0 0.0
2018-Jun-05 12:29S 24°07' W 046°16'0 0.0
2018-Jun-05 11:59S 24°07' W 046°16'0 0.0
2018-Jun-05 11:29S 24°07' W 046°16'0 0.0
2018-Jun-05 10:59S 24°07' W 046°16'0 0.0
2018-Jun-05 10:29S 24°07' W 046°16'0 0.0
2018-Jun-05 09:56S 24°07' W 046°16'0 0.0
2018-Jun-05 09:29S 24°07' W 046°16'0 0.0
2018-Jun-05 08:59S 24°07' W 046°16'0 0.0
2018-Jun-05 08:29S 24°07' W 046°16'0 0.0
2018-Jun-05 07:59S 24°07' W 046°16'0 0.0
2018-Jun-05 07:29S 24°07' W 046°16'0 0.0
2018-Jun-05 06:59S 24°07' W 046°16'0 0.0
2018-Jun-05 06:29S 24°07' W 046°16'0 0.1
2018-Jun-05 05:59S 24°07' W 046°16'0 0.1
2018-Jun-05 05:29S 24°07' W 046°16'0 0.0
2018-Jun-05 04:59S 24°07' W 046°16'0 0.0
2018-Jun-05 04:29S 24°07' W 046°16'0 0.0
2018-Jun-05 03:59S 24°07' W 046°16'0 0.0
2018-Jun-05 03:29S 24°07' W 046°16'0 0.0
2018-Jun-05 02:59S 24°07' W 046°16'0 0.0
2018-Jun-05 02:29S 24°07' W 046°16'0 0.0
2018-Jun-05 01:59S 24°07' W 046°16'0 0.0
2018-Jun-05 01:29S 24°07' W 046°16'0 0.0
2018-Jun-05 00:59S 24°07' W 046°16'0 0.0
2018-Jun-05 00:29S 24°07' W 046°16'0 0.0
2018-Jun-04 23:56S 24°07' W 046°16'0 0.0
2018-Jun-04 23:20S 24°07' W 046°16'0 0.0
2018-Jun-04 22:47S 24°07' W 046°16'0 0.1
2018-Jun-04 22:26S 24°07' W 046°16'0 0.0
2018-Jun-04 21:53S 24°07' W 046°16'0 0.0
2018-Jun-04 21:23S 24°07' W 046°16'0 0.0
2018-Jun-04 20:59S 24°07' W 046°16'0 0.0
2018-Jun-04 20:29S 24°07' W 046°16'0 0.0
2018-Jun-04 19:59S 24°07' W 046°16'0 0.0
2018-Jun-04 19:29S 24°07' W 046°16'0 0.0
2018-Jun-04 18:59S 24°07' W 046°16'0 0.0
2018-Jun-04 18:29S 24°07' W 046°16'0 0.0
2018-Jun-04 17:59S 24°07' W 046°16'0 0.0
2018-Jun-04 17:29S 24°07' W 046°16'0 0.0
2018-Jun-04 16:59S 24°07' W 046°16'0 0.0
2018-Jun-04 16:29S 24°07' W 046°16'0 0.0
2018-Jun-04 15:59S 24°07' W 046°16'0 0.0
2018-Jun-04 15:29S 24°07' W 046°16'0 0.0
2018-Jun-04 14:59S 24°07' W 046°16'0 0.0
2018-Jun-04 14:29S 24°07' W 046°16'0 0.0
2018-Jun-04 13:59S 24°07' W 046°16'0 0.0
2018-Jun-04 13:29S 24°07' W 046°16'0 0.0
2018-Jun-04 12:53S 24°07' W 046°16'0 0.0
2018-Jun-04 12:20S 24°07' W 046°16'0 0.0
2018-Jun-04 11:59S 24°07' W 046°16'0 0.0
2018-Jun-04 11:29S 24°07' W 046°16'0 0.0
2018-Jun-04 10:59S 24°07' W 046°16'0 0.0
2018-Jun-04 10:29S 24°07' W 046°16'0 0.0
2018-Jun-04 09:59S 24°07' W 046°16'0 0.0
2018-Jun-04 09:02S 24°07' W 046°16'0 0.1
2018-Jun-04 08:59S 24°07' W 046°16'0 0.0
2018-Jun-04 08:29S 24°07' W 046°16'0 0.0
2018-Jun-04 07:59S 24°07' W 046°16'0 0.0
2018-Jun-04 07:29S 24°07' W 046°16'0 0.0
2018-Jun-04 06:59S 24°07' W 046°16'0 0.0
2018-Jun-04 06:29S 24°07' W 046°16'0 0.0
2018-Jun-04 05:50S 24°07' W 046°16'0 0.1
2018-Jun-04 05:29S 24°07' W 046°16'0 0.0
2018-Jun-04 04:59S 24°07' W 046°16'0 0.1
2018-Jun-04 04:29S 24°07' W 046°16'0 0.0
2018-Jun-04 03:59S 24°07' W 046°16'0 0.0
2018-Jun-04 03:26S 24°07' W 046°16'0 0.0
2018-Jun-04 02:53S 24°07' W 046°16'0 0.1
2018-Jun-04 02:29S 24°07' W 046°16'0 0.1
2018-Jun-04 01:59S 24°07' W 046°16'0 0.0
2018-Jun-04 01:23S 24°07' W 046°16'0 0.0
2018-Jun-04 00:59S 24°07' W 046°16'0 0.0
2018-Jun-04 00:29S 24°07' W 046°16'0 0.0
2018-Jun-03 23:59S 24°07' W 046°16'0 0.0
2018-Jun-03 23:29S 24°07' W 046°16'0 0.0
2018-Jun-03 22:59S 24°07' W 046°16'0 0.0
2018-Jun-03 22:23S 24°07' W 046°16'0 0.0
2018-Jun-03 21:59S 24°07' W 046°16'0 0.0
2018-Jun-03 21:29S 24°07' W 046°16'0 0.0
2018-Jun-03 20:59S 24°07' W 046°16'0 0.0
2018-Jun-03 20:29S 24°07' W 046°16'0 0.0
2018-Jun-03 19:44S 24°07' W 046°16'0 0.1
2018-Jun-03 19:29S 24°07' W 046°16'0 0.0
2018-Jun-03 18:59S 24°07' W 046°16'0 0.0
2018-Jun-03 18:26S 24°07' W 046°16'0 0.0
2018-Jun-03 17:59S 24°07' W 046°16'0 0.0
2018-Jun-03 17:23S 24°07' W 046°16'0 0.0
2018-Jun-03 16:59S 24°07' W 046°16'0 0.0
2018-Jun-03 16:14S 24°07' W 046°16'0 0.0
2018-Jun-03 15:59S 24°07' W 046°16'0 0.0
2018-Jun-03 15:29S 24°07' W 046°16'0 0.0
2018-Jun-03 14:53S 24°07' W 046°16'0 0.0
2018-Jun-03 14:20S 24°07' W 046°16'0 0.0
2018-Jun-03 13:59S 24°07' W 046°16'0 0.0
2018-Jun-03 13:29S 24°07' W 046°16'0 0.0
2018-Jun-03 12:59S 24°07' W 046°16'0 0.0
2018-Jun-03 12:29S 24°07' W 046°16'0 0.0
2018-Jun-03 11:59S 24°07' W 046°16'0 0.0
2018-Jun-03 11:11S 24°07' W 046°16'0 0.1
2018-Jun-03 10:50S 24°07' W 046°16'0 0.0
2018-Jun-03 10:23S 24°07' W 046°16'0 0.0
2018-Jun-03 09:59S 24°07' W 046°16'0 0.0
2018-Jun-03 09:29S 24°07' W 046°16'0 0.0
2018-Jun-03 08:59S 24°07' W 046°16'0 0.0
2018-Jun-03 08:29S 24°07' W 046°16'0 0.1
2018-Jun-03 07:59S 24°07' W 046°16'0 0.0
2018-Jun-03 07:17S 24°07' W 046°16'0 0.1
2018-Jun-03 06:53S 24°07' W 046°16'0 0.2
2018-Jun-03 06:23S 24°07' W 046°16'0 0.0
2018-Jun-03 05:59S 24°07' W 046°16'0 0.0
2018-Jun-03 05:29S 24°07' W 046°16'0 0.0
2018-Jun-03 04:59S 24°07' W 046°16'0 0.0
2018-Jun-03 04:23S 24°07' W 046°16'0 0.0
2018-Jun-03 03:59S 24°07' W 046°16'0 0.0
2018-Jun-03 03:17S 24°07' W 046°16'0 0.0
2018-Jun-03 02:59S 24°07' W 046°16'0 0.0
2018-Jun-03 02:29S 24°07' W 046°16'0 0.0
2018-Jun-03 01:59S 24°07' W 046°16'0 0.0
2018-Jun-03 01:29S 24°07' W 046°16'0 0.0
2018-Jun-03 00:59S 24°07' W 046°16'0 0.0
2018-Jun-03 00:29S 24°07' W 046°16'0 0.0
2018-Jun-02 23:59S 24°07' W 046°16'0 0.0
2018-Jun-02 23:29S 24°07' W 046°16'0 0.0
2018-Jun-02 22:53S 24°07' W 046°16'0 0.0
2018-Jun-02 22:29S 24°07' W 046°16'0 0.0
2018-Jun-02 21:59S 24°07' W 046°16'0 0.0
2018-Jun-02 21:29S 24°07' W 046°16'0 0.0
2018-Jun-02 20:59S 24°07' W 046°16'0 0.0
2018-Jun-02 20:29S 24°07' W 046°16'0 0.0
2018-Jun-02 19:59S 24°07' W 046°16'0 0.0
2018-Jun-02 19:29S 24°07' W 046°16'0 0.1
2018-Jun-02 18:53S 24°07' W 046°16'0 0.0
2018-Jun-02 18:29S 24°07' W 046°16'0 0.0
2018-Jun-02 17:59S 24°07' W 046°16'0 0.0
2018-Jun-02 17:26S 24°07' W 046°16'0 0.1
2018-Jun-02 16:59S 24°07' W 046°16'0 0.0
2018-Jun-02 16:29S 24°07' W 046°16'0 0.0
2018-Jun-02 15:59S 24°07' W 046°16'0 0.1
2018-Jun-02 15:29S 24°07' W 046°16'0 0.1
2018-Jun-02 14:53S 24°07' W 046°16'0 0.1
2018-Jun-02 14:29S 24°07' W 046°16'0 0.0
2018-Jun-02 13:59S 24°07' W 046°16'0 0.0
2018-Jun-02 13:23S 24°07' W 046°16'0 0.2
2018-Jun-02 12:59S 24°07' W 046°16'0 0.0
2018-Jun-02 12:29S 24°07' W 046°16'0 0.1
2018-Jun-02 11:59S 24°07' W 046°16'0 0.1
2018-Jun-02 11:29S 24°07' W 046°16'  

Dump ship's entire track history